sensor_id;sensor_type;location;lat;lon;timestamp;P1;durP1;ratioP1;P2;durP2;ratioP2
4106;SDS011;21906;50.812;7.132;2023-06-14T00:01:43;9.80;;;9.03;;
4106;SDS011;21906;50.812;7.132;2023-06-14T00:04:10;11.30;;;10.20;;
4106;SDS011;21906;50.812;7.132;2023-06-14T00:06:37;10.13;;;9.33;;
4106;SDS011;21906;50.812;7.132;2023-06-14T00:09:03;10.17;;;9.37;;
4106;SDS011;21906;50.812;7.132;2023-06-14T00:11:30;10.70;;;9.60;;
4106;SDS011;21906;50.812;7.132;2023-06-14T00:13:56;10.10;;;9.30;;
4106;SDS011;21906;50.812;7.132;2023-06-14T00:16:22;9.60;;;8.90;;
4106;SDS011;21906;50.812;7.132;2023-06-14T00:18:48;11.30;;;10.40;;
4106;SDS011;21906;50.812;7.132;2023-06-14T00:21:14;10.50;;;9.70;;
4106;SDS011;21906;50.812;7.132;2023-06-14T00:23:40;10.20;;;9.40;;
4106;SDS011;21906;50.812;7.132;2023-06-14T00:26:05;10.70;;;9.80;;
4106;SDS011;21906;50.812;7.132;2023-06-14T00:28:31;10.20;;;9.50;;
4106;SDS011;21906;50.812;7.132;2023-06-14T00:30:56;11.37;;;10.40;;
4106;SDS011;21906;50.812;7.132;2023-06-14T00:33:22;9.87;;;9.07;;
4106;SDS011;21906;50.812;7.132;2023-06-14T00:35:48;10.07;;;9.27;;
4106;SDS011;21906;50.812;7.132;2023-06-14T00:38:13;9.90;;;9.03;;
4106;SDS011;21906;50.812;7.132;2023-06-14T00:40:39;10.77;;;9.73;;
4106;SDS011;21906;50.812;7.132;2023-06-14T00:43:05;10.30;;;9.37;;
4106;SDS011;21906;50.812;7.132;2023-06-14T00:45:31;9.33;;;8.73;;
4106;SDS011;21906;50.812;7.132;2023-06-14T00:48:00;11.03;;;9.93;;
4106;SDS011;21906;50.812;7.132;2023-06-14T00:50:27;10.90;;;9.93;;
4106;SDS011;21906;50.812;7.132;2023-06-14T00:52:54;10.53;;;9.63;;
4106;SDS011;21906;50.812;7.132;2023-06-14T00:55:20;10.37;;;9.47;;
4106;SDS011;21906;50.812;7.132;2023-06-14T00:57:46;11.03;;;10.13;;
4106;SDS011;21906;50.812;7.132;2023-06-14T01:00:13;11.27;;;10.20;;
4106;SDS011;21906;50.812;7.132;2023-06-14T01:02:39;9.93;;;9.23;;
4106;SDS011;21906;50.812;7.132;2023-06-14T01:05:05;12.13;;;10.20;;
4106;SDS011;21906;50.812;7.132;2023-06-14T01:07:42;10.80;;;9.60;;
4106;SDS011;21906;50.812;7.132;2023-06-14T01:12:52;10.67;;;9.87;;
4106;SDS011;21906;50.812;7.132;2023-06-14T01:15:27;10.27;;;9.37;;
4106;SDS011;21906;50.812;7.132;2023-06-14T01:17:55;10.00;;;9.20;;
4106;SDS011;21906;50.812;7.132;2023-06-14T01:20:28;10.00;;;9.20;;
4106;SDS011;21906;50.812;7.132;2023-06-14T01:22:57;10.67;;;9.80;;
4106;SDS011;21906;50.812;7.132;2023-06-14T01:25:23;9.70;;;9.00;;
4106;SDS011;21906;50.812;7.132;2023-06-14T01:27:50;10.73;;;9.60;;
4106;SDS011;21906;50.812;7.132;2023-06-14T01:30:20;10.80;;;9.90;;
4106;SDS011;21906;50.812;7.132;2023-06-14T01:32:47;10.40;;;9.50;;
4106;SDS011;21906;50.812;7.132;2023-06-14T01:35:15;11.02;;;9.88;;
4106;SDS011;21906;50.812;7.132;2023-06-14T01:37:41;10.20;;;9.40;;
4106;SDS011;21906;50.812;7.132;2023-06-14T01:40:08;10.17;;;9.27;;
4106;SDS011;21906;50.812;7.132;2023-06-14T01:42:36;11.50;;;10.40;;
4106;SDS011;21906;50.812;7.132;2023-06-14T01:45:06;10.33;;;9.30;;
4106;SDS011;21906;50.812;7.132;2023-06-14T01:47:33;10.40;;;9.43;;
4106;SDS011;21906;50.812;7.132;2023-06-14T01:50:01;10.43;;;9.50;;
4106;SDS011;21906;50.812;7.132;2023-06-14T01:52:32;9.80;;;9.00;;
4106;SDS011;21906;50.812;7.132;2023-06-14T01:54:58;10.00;;;9.20;;
4106;SDS011;21906;50.812;7.132;2023-06-14T01:57:27;10.03;;;9.33;;
4106;SDS011;21906;50.812;7.132;2023-06-14T01:59:53;10.77;;;9.77;;
4106;SDS011;21906;50.812;7.132;2023-06-14T02:02:18;10.27;;;9.47;;
4106;SDS011;21906;50.812;7.132;2023-06-14T02:04:44;10.43;;;9.63;;
4106;SDS011;21906;50.812;7.132;2023-06-14T02:07:12;11.17;;;10.00;;
4106;SDS011;21906;50.812;7.132;2023-06-14T02:09:38;9.77;;;8.97;;
4106;SDS011;21906;50.812;7.132;2023-06-14T02:12:04;9.90;;;9.20;;
4106;SDS011;21906;50.812;7.132;2023-06-14T02:14:30;10.67;;;9.77;;
4106;SDS011;21906;50.812;7.132;2023-06-14T02:16:56;10.07;;;9.27;;
4106;SDS011;21906;50.812;7.132;2023-06-14T02:19:21;10.70;;;9.90;;
4106;SDS011;21906;50.812;7.132;2023-06-14T02:21:47;10.20;;;9.20;;
4106;SDS011;21906;50.812;7.132;2023-06-14T02:24:13;11.00;;;10.00;;
4106;SDS011;21906;50.812;7.132;2023-06-14T02:26:38;10.37;;;9.63;;
4106;SDS011;21906;50.812;7.132;2023-06-14T02:29:06;11.17;;;10.27;;
4106;SDS011;21906;50.812;7.132;2023-06-14T02:31:35;10.70;;;9.80;;
4106;SDS011;21906;50.812;7.132;2023-06-14T02:34:00;11.17;;;10.07;;
4106;SDS011;21906;50.812;7.132;2023-06-14T02:36:26;11.87;;;10.87;;
4106;SDS011;21906;50.812;7.132;2023-06-14T02:38:54;12.07;;;10.90;;
4106;SDS011;21906;50.812;7.132;2023-06-14T02:41:22;12.17;;;11.17;;
4106;SDS011;21906;50.812;7.132;2023-06-14T02:43:49;11.50;;;10.40;;
4106;SDS011;21906;50.812;7.132;2023-06-14T02:46:14;11.30;;;10.43;;
4106;SDS011;21906;50.812;7.132;2023-06-14T02:48:40;11.43;;;10.43;;
4106;SDS011;21906;50.812;7.132;2023-06-14T02:51:06;11.37;;;10.37;;
4106;SDS011;21906;50.812;7.132;2023-06-14T02:53:34;11.57;;;10.60;;
4106;SDS011;21906;50.812;7.132;2023-06-14T02:56:02;11.67;;;10.47;;
4106;SDS011;21906;50.812;7.132;2023-06-14T02:58:31;11.40;;;10.30;;
4106;SDS011;21906;50.812;7.132;2023-06-14T03:00:58;11.27;;;10.30;;
4106;SDS011;21906;50.812;7.132;2023-06-14T03:03:27;10.93;;;10.00;;
4106;SDS011;21906;50.812;7.132;2023-06-14T03:05:53;10.60;;;9.70;;
4106;SDS011;21906;50.812;7.132;2023-06-14T03:08:19;10.90;;;9.90;;
4106;SDS011;21906;50.812;7.132;2023-06-14T03:10:45;11.00;;;10.17;;
4106;SDS011;21906;50.812;7.132;2023-06-14T03:13:12;10.80;;;9.90;;
4106;SDS011;21906;50.812;7.132;2023-06-14T03:15:38;10.47;;;9.67;;
4106;SDS011;21906;50.812;7.132;2023-06-14T03:18:07;12.03;;;10.60;;
4106;SDS011;21906;50.812;7.132;2023-06-14T03:20:34;10.80;;;9.87;;
4106;SDS011;21906;50.812;7.132;2023-06-14T03:23:01;10.73;;;9.90;;
4106;SDS011;21906;50.812;7.132;2023-06-14T03:25:27;10.90;;;9.80;;
4106;SDS011;21906;50.812;7.132;2023-06-14T03:27:54;10.40;;;9.60;;
4106;SDS011;21906;50.812;7.132;2023-06-14T03:30:21;11.97;;;10.80;;
4106;SDS011;21906;50.812;7.132;2023-06-14T03:32:47;11.10;;;10.07;;
4106;SDS011;21906;50.812;7.132;2023-06-14T03:35:12;10.80;;;9.80;;
4106;SDS011;21906;50.812;7.132;2023-06-14T03:37:42;9.90;;;9.20;;
4106;SDS011;21906;50.812;7.132;2023-06-14T03:40:09;10.37;;;9.57;;
4106;SDS011;21906;50.812;7.132;2023-06-14T03:42:36;11.23;;;10.33;;
4106;SDS011;21906;50.812;7.132;2023-06-14T03:45:02;11.07;;;10.17;;
4106;SDS011;21906;50.812;7.132;2023-06-14T03:47:28;10.53;;;9.73;;
4106;SDS011;21906;50.812;7.132;2023-06-14T03:49:54;11.80;;;10.80;;
4106;SDS011;21906;50.812;7.132;2023-06-14T03:52:20;11.13;;;10.17;;
4106;SDS011;21906;50.812;7.132;2023-06-14T03:54:47;11.20;;;10.27;;
4106;SDS011;21906;50.812;7.132;2023-06-14T03:57:13;10.90;;;9.90;;
4106;SDS011;21906;50.812;7.132;2023-06-14T03:59:38;11.80;;;10.53;;
4106;SDS011;21906;50.812;7.132;2023-06-14T04:02:04;11.57;;;10.57;;
4106;SDS011;21906;50.812;7.132;2023-06-14T04:04:30;11.33;;;10.33;;
4106;SDS011;21906;50.812;7.132;2023-06-14T04:06:56;11.93;;;10.80;;
4106;SDS011;21906;50.812;7.132;2023-06-14T04:09:23;13.83;;;11.30;;
4106;SDS011;21906;50.812;7.132;2023-06-14T04:11:50;11.37;;;10.47;;
4106;SDS011;21906;50.812;7.132;2023-06-14T04:14:18;12.00;;;10.80;;
4106;SDS011;21906;50.812;7.132;2023-06-14T04:16:44;12.30;;;11.13;;
4106;SDS011;21906;50.812;7.132;2023-06-14T04:19:11;11.90;;;10.90;;
4106;SDS011;21906;50.812;7.132;2023-06-14T04:21:36;14.30;;;11.90;;
4106;SDS011;21906;50.812;7.132;2023-06-14T04:24:02;11.90;;;10.67;;
4106;SDS011;21906;50.812;7.132;2023-06-14T04:26:28;11.80;;;10.70;;
4106;SDS011;21906;50.812;7.132;2023-06-14T04:28:55;13.83;;;12.10;;
4106;SDS011;21906;50.812;7.132;2023-06-14T04:31:22;12.23;;;11.03;;
4106;SDS011;21906;50.812;7.132;2023-06-14T04:33:50;14.33;;;12.13;;
4106;SDS011;21906;50.812;7.132;2023-06-14T04:36:18;15.23;;;12.77;;
4106;SDS011;21906;50.812;7.132;2023-06-14T04:38:44;13.70;;;12.40;;
4106;SDS011;21906;50.812;7.132;2023-06-14T04:41:14;14.07;;;12.57;;
4106;SDS011;21906;50.812;7.132;2023-06-14T04:43:40;13.80;;;12.47;;
4106;SDS011;21906;50.812;7.132;2023-06-14T04:46:08;14.70;;;13.20;;
4106;SDS011;21906;50.812;7.132;2023-06-14T04:48:35;11.90;;;10.80;;
4106;SDS011;21906;50.812;7.132;2023-06-14T04:51:00;10.83;;;9.73;;
4106;SDS011;21906;50.812;7.132;2023-06-14T04:53:28;11.23;;;10.30;;
4106;SDS011;21906;50.812;7.132;2023-06-14T04:55:54;11.23;;;9.90;;
4106;SDS011;21906;50.812;7.132;2023-06-14T04:58:20;9.50;;;8.80;;
4106;SDS011;21906;50.812;7.132;2023-06-14T05:00:46;9.23;;;8.30;;
4106;SDS011;21906;50.812;7.132;2023-06-14T05:03:11;9.17;;;8.53;;
4106;SDS011;21906;50.812;7.132;2023-06-14T05:05:38;9.37;;;8.57;;
4106;SDS011;21906;50.812;7.132;2023-06-14T05:08:05;9.47;;;8.20;;
4106;SDS011;21906;50.812;7.132;2023-06-14T05:10:31;8.33;;;7.63;;
4106;SDS011;21906;50.812;7.132;2023-06-14T05:12:59;8.20;;;7.60;;
4106;SDS011;21906;50.812;7.132;2023-06-14T05:15:25;7.83;;;7.20;;
4106;SDS011;21906;50.812;7.132;2023-06-14T05:17:51;8.00;;;7.30;;
4106;SDS011;21906;50.812;7.132;2023-06-14T05:20:23;8.20;;;7.60;;
4106;SDS011;21906;50.812;7.132;2023-06-14T05:22:52;8.77;;;7.90;;
4106;SDS011;21906;50.812;7.132;2023-06-14T05:25:22;7.73;;;7.13;;
4106;SDS011;21906;50.812;7.132;2023-06-14T05:27:48;7.40;;;6.80;;
4106;SDS011;21906;50.812;7.132;2023-06-14T05:30:14;8.23;;;7.47;;
4106;SDS011;21906;50.812;7.132;2023-06-14T05:32:40;8.67;;;7.80;;
4106;SDS011;21906;50.812;7.132;2023-06-14T05:35:07;7.90;;;7.20;;
4106;SDS011;21906;50.812;7.132;2023-06-14T05:37:33;8.43;;;7.73;;
4106;SDS011;21906;50.812;7.132;2023-06-14T05:39:59;8.00;;;7.20;;
4106;SDS011;21906;50.812;7.132;2023-06-14T05:42:24;7.90;;;7.20;;
4106;SDS011;21906;50.812;7.132;2023-06-14T05:44:50;8.67;;;7.70;;
4106;SDS011;21906;50.812;7.132;2023-06-14T05:47:16;7.37;;;6.87;;
4106;SDS011;21906;50.812;7.132;2023-06-14T05:49:41;7.40;;;6.73;;
4106;SDS011;21906;50.812;7.132;2023-06-14T05:52:07;7.90;;;7.10;;
4106;SDS011;21906;50.812;7.132;2023-06-14T05:54:33;7.00;;;6.27;;
4106;SDS011;21906;50.812;7.132;2023-06-14T05:56:59;8.17;;;6.00;;
4106;SDS011;21906;50.812;7.132;2023-06-14T05:59:26;6.53;;;6.00;;
4106;SDS011;21906;50.812;7.132;2023-06-14T06:01:52;6.30;;;5.83;;
4106;SDS011;21906;50.812;7.132;2023-06-14T06:04:18;7.10;;;6.60;;
4106;SDS011;21906;50.812;7.132;2023-06-14T06:06:45;7.30;;;6.73;;
4106;SDS011;21906;50.812;7.132;2023-06-14T06:09:11;6.43;;;6.03;;
4106;SDS011;21906;50.812;7.132;2023-06-14T06:11:39;6.17;;;5.67;;
4106;SDS011;21906;50.812;7.132;2023-06-14T06:14:05;6.60;;;6.10;;
4106;SDS011;21906;50.812;7.132;2023-06-14T06:16:31;6.67;;;5.97;;
4106;SDS011;21906;50.812;7.132;2023-06-14T06:18:57;5.97;;;5.63;;
4106;SDS011;21906;50.812;7.132;2023-06-14T06:21:24;6.53;;;6.00;;
4106;SDS011;21906;50.812;7.132;2023-06-14T06:23:50;6.80;;;6.20;;
4106;SDS011;21906;50.812;7.132;2023-06-14T06:26:15;5.83;;;5.43;;
4106;SDS011;21906;50.812;7.132;2023-06-14T06:28:41;5.73;;;5.33;;
4106;SDS011;21906;50.812;7.132;2023-06-14T06:31:07;6.60;;;5.93;;
4106;SDS011;21906;50.812;7.132;2023-06-14T06:33:33;6.40;;;6.00;;
4106;SDS011;21906;50.812;7.132;2023-06-14T06:35:58;7.00;;;5.80;;
4106;SDS011;21906;50.812;7.132;2023-06-14T06:38:24;6.23;;;5.83;;
4106;SDS011;21906;50.812;7.132;2023-06-14T06:40:50;6.50;;;6.00;;
4106;SDS011;21906;50.812;7.132;2023-06-14T06:43:16;6.10;;;5.60;;
4106;SDS011;21906;50.812;7.132;2023-06-14T06:45:42;5.97;;;5.57;;
4106;SDS011;21906;50.812;7.132;2023-06-14T06:48:08;7.40;;;5.80;;
4106;SDS011;21906;50.812;7.132;2023-06-14T06:50:37;5.93;;;5.63;;
4106;SDS011;21906;50.812;7.132;2023-06-14T06:53:03;5.73;;;5.37;;
4106;SDS011;21906;50.812;7.132;2023-06-14T06:55:29;5.67;;;5.10;;
4106;SDS011;21906;50.812;7.132;2023-06-14T06:57:55;5.60;;;5.30;;
4106;SDS011;21906;50.812;7.132;2023-06-14T07:00:21;6.23;;;5.70;;
4106;SDS011;21906;50.812;7.132;2023-06-14T07:02:46;5.73;;;5.33;;
4106;SDS011;21906;50.812;7.132;2023-06-14T07:05:12;6.13;;;5.47;;
4106;SDS011;21906;50.812;7.132;2023-06-14T07:07:38;5.90;;;5.60;;
4106;SDS011;21906;50.812;7.132;2023-06-14T07:10:04;5.83;;;5.40;;
4106;SDS011;21906;50.812;7.132;2023-06-14T07:12:31;5.80;;;5.40;;
4106;SDS011;21906;50.812;7.132;2023-06-14T07:14:59;7.03;;;6.13;;
4106;SDS011;21906;50.812;7.132;2023-06-14T07:17:25;6.00;;;5.70;;
4106;SDS011;21906;50.812;7.132;2023-06-14T07:19:50;7.30;;;5.50;;
4106;SDS011;21906;50.812;7.132;2023-06-14T07:22:16;6.17;;;5.50;;
4106;SDS011;21906;50.812;7.132;2023-06-14T07:24:42;5.63;;;5.13;;
4106;SDS011;21906;50.812;7.132;2023-06-14T07:27:08;6.80;;;5.17;;
4106;SDS011;21906;50.812;7.132;2023-06-14T07:29:35;4.67;;;4.37;;
4106;SDS011;21906;50.812;7.132;2023-06-14T07:32:02;4.90;;;4.37;;
4106;SDS011;21906;50.812;7.132;2023-06-14T07:34:28;4.73;;;3.97;;
4106;SDS011;21906;50.812;7.132;2023-06-14T07:36:54;3.97;;;3.70;;
4106;SDS011;21906;50.812;7.132;2023-06-14T07:39:20;3.77;;;3.57;;
4106;SDS011;21906;50.812;7.132;2023-06-14T07:41:46;4.33;;;4.03;;
4106;SDS011;21906;50.812;7.132;2023-06-14T07:44:11;3.77;;;3.57;;
4106;SDS011;21906;50.812;7.132;2023-06-14T07:46:38;3.90;;;3.60;;
4106;SDS011;21906;50.812;7.132;2023-06-14T07:49:04;3.60;;;3.40;;
4106;SDS011;21906;50.812;7.132;2023-06-14T07:51:30;3.93;;;3.37;;
4106;SDS011;21906;50.812;7.132;2023-06-14T07:53:56;3.40;;;3.10;;
4106;SDS011;21906;50.812;7.132;2023-06-14T07:56:26;3.60;;;3.40;;
4106;SDS011;21906;50.812;7.132;2023-06-14T07:58:51;4.63;;;3.50;;
4106;SDS011;21906;50.812;7.132;2023-06-14T08:01:17;3.87;;;3.20;;
4106;SDS011;21906;50.812;7.132;2023-06-14T08:03:45;3.50;;;3.30;;
4106;SDS011;21906;50.812;7.132;2023-06-14T08:06:10;4.47;;;3.33;;
4106;SDS011;21906;50.812;7.132;2023-06-14T08:08:36;4.67;;;3.20;;
4106;SDS011;21906;50.812;7.132;2023-06-14T08:11:02;3.60;;;3.40;;
4106;SDS011;21906;50.812;7.132;2023-06-14T08:13:28;3.10;;;2.90;;
4106;SDS011;21906;50.812;7.132;2023-06-14T08:15:54;3.17;;;2.97;;
4106;SDS011;21906;50.812;7.132;2023-06-14T08:18:22;2.67;;;2.50;;
4106;SDS011;21906;50.812;7.132;2023-06-14T08:20:48;3.00;;;2.80;;
4106;SDS011;21906;50.812;7.132;2023-06-14T08:23:15;2.53;;;2.43;;
4106;SDS011;21906;50.812;7.132;2023-06-14T08:25:44;2.73;;;2.60;;
4106;SDS011;21906;50.812;7.132;2023-06-14T08:28:12;2.97;;;2.47;;
4106;SDS011;21906;50.812;7.132;2023-06-14T08:30:38;3.00;;;2.80;;
4106;SDS011;21906;50.812;7.132;2023-06-14T08:33:04;3.00;;;2.80;;
4106;SDS011;21906;50.812;7.132;2023-06-14T08:35:30;2.73;;;2.53;;
4106;SDS011;21906;50.812;7.132;2023-06-14T08:37:56;3.83;;;3.10;;
4106;SDS011;21906;50.812;7.132;2023-06-14T08:40:22;3.23;;;3.03;;
4106;SDS011;21906;50.812;7.132;2023-06-14T08:42:52;3.40;;;3.10;;
4106;SDS011;21906;50.812;7.132;2023-06-14T08:45:20;3.10;;;2.90;;
4106;SDS011;21906;50.812;7.132;2023-06-14T08:47:47;3.00;;;2.80;;
4106;SDS011;21906;50.812;7.132;2023-06-14T08:50:22;2.77;;;2.57;;
4106;SDS011;21906;50.812;7.132;2023-06-14T08:52:55;2.97;;;2.77;;
4106;SDS011;21906;50.812;7.132;2023-06-14T08:55:25;3.27;;;3.07;;
4106;SDS011;21906;50.812;7.132;2023-06-14T08:57:56;3.93;;;3.63;;
4106;SDS011;21906;50.812;7.132;2023-06-14T09:00:23;3.73;;;3.43;;
4106;SDS011;21906;50.812;7.132;2023-06-14T09:02:51;3.00;;;2.80;;
4106;SDS011;21906;50.812;7.132;2023-06-14T09:05:21;3.30;;;3.00;;
4106;SDS011;21906;50.812;7.132;2023-06-14T09:07:50;3.23;;;3.03;;
4106;SDS011;21906;50.812;7.132;2023-06-14T09:10:18;5.10;;;2.97;;
4106;SDS011;21906;50.812;7.132;2023-06-14T09:12:45;2.97;;;2.77;;
4106;SDS011;21906;50.812;7.132;2023-06-14T09:15:12;3.00;;;2.80;;
4106;SDS011;21906;50.812;7.132;2023-06-14T09:17:39;3.10;;;2.90;;
4106;SDS011;21906;50.812;7.132;2023-06-14T09:20:05;2.97;;;2.77;;
4106;SDS011;21906;50.812;7.132;2023-06-14T09:22:36;2.97;;;2.77;;
4106;SDS011;21906;50.812;7.132;2023-06-14T09:25:03;4.00;;;2.90;;
4106;SDS011;21906;50.812;7.132;2023-06-14T09:27:30;3.00;;;2.80;;
4106;SDS011;21906;50.812;7.132;2023-06-14T09:29:56;3.00;;;2.80;;
4106;SDS011;21906;50.812;7.132;2023-06-14T09:32:22;3.23;;;3.03;;
4106;SDS011;21906;50.812;7.132;2023-06-14T09:34:48;3.93;;;3.00;;
4106;SDS011;21906;50.812;7.132;2023-06-14T09:37:29;3.17;;;2.97;;
4106;SDS011;21906;50.812;7.132;2023-06-14T09:39:56;3.23;;;3.03;;
4106;SDS011;21906;50.812;7.132;2023-06-14T09:42:23;2.97;;;2.77;;
4106;SDS011;21906;50.812;7.132;2023-06-14T09:44:53;3.60;;;3.30;;
4106;SDS011;21906;50.812;7.132;2023-06-14T09:47:21;3.30;;;3.00;;
4106;SDS011;21906;50.812;7.132;2023-06-14T09:49:47;3.00;;;2.80;;
4106;SDS011;21906;50.812;7.132;2023-06-14T09:52:14;3.13;;;2.73;;
4106;SDS011;21906;50.812;7.132;2023-06-14T09:54:43;2.97;;;2.77;;
4106;SDS011;21906;50.812;7.132;2023-06-14T09:57:13;3.00;;;2.80;;
4106;SDS011;21906;50.812;7.132;2023-06-14T09:59:44;4.30;;;3.30;;
4106;SDS011;21906;50.812;7.132;2023-06-14T10:02:21;2.70;;;2.50;;
4106;SDS011;21906;50.812;7.132;2023-06-14T10:05:10;3.20;;;3.00;;
4106;SDS011;21906;50.812;7.132;2023-06-14T10:07:40;3.37;;;3.17;;
4106;SDS011;21906;50.812;7.132;2023-06-14T10:10:14;3.53;;;3.23;;
4106;SDS011;21906;50.812;7.132;2023-06-14T10:12:40;3.03;;;2.83;;
4106;SDS011;21906;50.812;7.132;2023-06-14T10:15:08;3.30;;;3.10;;
4106;SDS011;21906;50.812;7.132;2023-06-14T10:17:46;3.00;;;2.80;;
4106;SDS011;21906;50.812;7.132;2023-06-14T10:23:11;3.30;;;3.10;;
4106;SDS011;21906;50.812;7.132;2023-06-14T10:25:42;3.43;;;3.23;;
4106;SDS011;21906;50.812;7.132;2023-06-14T10:28:15;3.03;;;2.83;;
4106;SDS011;21906;50.812;7.132;2023-06-14T10:31:07;3.20;;;3.00;;
4106;SDS011;21906;50.812;7.132;2023-06-14T10:33:50;3.20;;;3.00;;
4106;SDS011;21906;50.812;7.132;2023-06-14T10:38:57;4.00;;;3.30;;
4106;SDS011;21906;50.812;7.132;2023-06-14T10:41:36;3.22;;;3.03;;
4106;SDS011;21906;50.812;7.132;2023-06-14T10:46:38;3.40;;;3.20;;
4106;SDS011;21906;50.812;7.132;2023-06-14T10:49:04;2.80;;;2.57;;
4106;SDS011;21906;50.812;7.132;2023-06-14T10:51:37;4.63;;;3.20;;
4106;SDS011;21906;50.812;7.132;2023-06-14T10:54:14;3.33;;;3.13;;
4106;SDS011;21906;50.812;7.132;2023-06-14T10:56:46;3.37;;;3.17;;
4106;SDS011;21906;50.812;7.132;2023-06-14T10:59:15;3.10;;;2.90;;
4106;SDS011;21906;50.812;7.132;2023-06-14T11:01:51;3.13;;;2.90;;
4106;SDS011;21906;50.812;7.132;2023-06-14T11:04:49;2.60;;;2.40;;
4106;SDS011;21906;50.812;7.132;2023-06-14T11:12:55;3.30;;;3.10;;
4106;SDS011;21906;50.812;7.132;2023-06-14T11:15:27;3.90;;;3.60;;
4106;SDS011;21906;50.812;7.132;2023-06-14T11:18:04;3.80;;;3.37;;
4106;SDS011;21906;50.812;7.132;2023-06-14T11:20:35;3.30;;;3.10;;
4106;SDS011;21906;50.812;7.132;2023-06-14T11:23:01;3.90;;;3.60;;
4106;SDS011;21906;50.812;7.132;2023-06-14T11:25:28;3.20;;;3.00;;
4106;SDS011;21906;50.812;7.132;2023-06-14T11:27:54;3.37;;;3.10;;
4106;SDS011;21906;50.812;7.132;2023-06-14T11:30:21;2.97;;;2.87;;
4106;SDS011;21906;50.812;7.132;2023-06-14T11:32:48;3.10;;;2.90;;
4106;SDS011;21906;50.812;7.132;2023-06-14T11:35:15;3.30;;;3.10;;
4106;SDS011;21906;50.812;7.132;2023-06-14T11:37:42;3.27;;;2.90;;
4106;SDS011;21906;50.812;7.132;2023-06-14T11:40:09;5.63;;;2.90;;
4106;SDS011;21906;50.812;7.132;2023-06-14T11:42:37;2.97;;;2.77;;
4106;SDS011;21906;50.812;7.132;2023-06-14T11:45:07;2.80;;;2.63;;
4106;SDS011;21906;50.812;7.132;2023-06-14T11:47:35;2.77;;;2.57;;
4106;SDS011;21906;50.812;7.132;2023-06-14T11:50:02;2.70;;;2.50;;
4106;SDS011;21906;50.812;7.132;2023-06-14T11:52:29;3.00;;;2.50;;
4106;SDS011;21906;50.812;7.132;2023-06-14T11:54:56;2.60;;;2.40;;
4106;SDS011;21906;50.812;7.132;2023-06-14T11:57:22;2.70;;;2.40;;
4106;SDS011;21906;50.812;7.132;2023-06-14T11:59:48;3.10;;;2.37;;
4106;SDS011;21906;50.812;7.132;2023-06-14T12:02:18;2.40;;;2.30;;
4106;SDS011;21906;50.812;7.132;2023-06-14T12:04:47;2.67;;;2.47;;
4106;SDS011;21906;50.812;7.132;2023-06-14T12:07:14;3.83;;;2.30;;
4106;SDS011;21906;50.812;7.132;2023-06-14T12:09:42;2.53;;;2.33;;
4106;SDS011;21906;50.812;7.132;2023-06-14T12:12:28;2.43;;;2.33;;
4106;SDS011;21906;50.812;7.132;2023-06-14T12:14:57;2.50;;;2.30;;
4106;SDS011;21906;50.812;7.132;2023-06-14T12:17:23;2.43;;;2.20;;
4106;SDS011;21906;50.812;7.132;2023-06-14T12:19:49;2.53;;;2.33;;
4106;SDS011;21906;50.812;7.132;2023-06-14T12:22:15;2.37;;;2.27;;
4106;SDS011;21906;50.812;7.132;2023-06-14T12:24:45;2.50;;;2.30;;
4106;SDS011;21906;50.812;7.132;2023-06-14T12:27:11;2.30;;;2.10;;
4106;SDS011;21906;50.812;7.132;2023-06-14T12:29:40;2.57;;;2.20;;
4106;SDS011;21906;50.812;7.132;2023-06-14T12:32:08;2.60;;;2.30;;
4106;SDS011;21906;50.812;7.132;2023-06-14T12:34:35;2.43;;;2.07;;
4106;SDS011;21906;50.812;7.132;2023-06-14T12:37:01;3.43;;;2.20;;
4106;SDS011;21906;50.812;7.132;2023-06-14T12:39:29;3.40;;;2.27;;
4106;SDS011;21906;50.812;7.132;2023-06-14T12:41:56;2.53;;;2.43;;
4106;SDS011;21906;50.812;7.132;2023-06-14T12:44:23;2.30;;;2.10;;
4106;SDS011;21906;50.812;7.132;2023-06-14T12:46:49;2.70;;;2.50;;
4106;SDS011;21906;50.812;7.132;2023-06-14T12:49:17;2.73;;;2.43;;
4106;SDS011;21906;50.812;7.132;2023-06-14T12:51:43;2.87;;;2.63;;
4106;SDS011;21906;50.812;7.132;2023-06-14T12:54:09;2.23;;;2.13;;
4106;SDS011;21906;50.812;7.132;2023-06-14T12:56:34;2.83;;;2.63;;
4106;SDS011;21906;50.812;7.132;2023-06-14T12:59:01;2.73;;;2.63;;
4106;SDS011;21906;50.812;7.132;2023-06-14T13:01:27;3.23;;;3.03;;
4106;SDS011;21906;50.812;7.132;2023-06-14T13:03:53;3.20;;;3.00;;
4106;SDS011;21906;50.812;7.132;2023-06-14T13:06:21;4.03;;;2.90;;
4106;SDS011;21906;50.812;7.132;2023-06-14T13:08:48;2.77;;;2.57;;
4106;SDS011;21906;50.812;7.132;2023-06-14T13:11:15;3.03;;;2.93;;
4106;SDS011;21906;50.812;7.132;2023-06-14T13:13:43;3.50;;;3.30;;
4106;SDS011;21906;50.812;7.132;2023-06-14T13:16:10;3.17;;;2.97;;
4106;SDS011;21906;50.812;7.132;2023-06-14T13:18:38;3.40;;;3.10;;
4106;SDS011;21906;50.812;7.132;2023-06-14T13:21:04;3.70;;;3.40;;
4106;SDS011;21906;50.812;7.132;2023-06-14T13:23:30;3.47;;;3.27;;
4106;SDS011;21906;50.812;7.132;2023-06-14T13:25:55;3.37;;;3.20;;
4106;SDS011;21906;50.812;7.132;2023-06-14T13:28:21;3.40;;;3.20;;
4106;SDS011;21906;50.812;7.132;2023-06-14T13:30:47;4.03;;;3.73;;
4106;SDS011;21906;50.812;7.132;2023-06-14T13:33:13;3.73;;;3.53;;
4106;SDS011;21906;50.812;7.132;2023-06-14T13:35:39;4.80;;;3.77;;
4106;SDS011;21906;50.812;7.132;2023-06-14T13:38:05;3.63;;;3.43;;
4106;SDS011;21906;50.812;7.132;2023-06-14T13:40:30;4.33;;;4.03;;
4106;SDS011;21906;50.812;7.132;2023-06-14T13:42:56;3.30;;;3.10;;
4106;SDS011;21906;50.812;7.132;2023-06-14T13:45:22;3.60;;;3.40;;
4106;SDS011;21906;50.812;7.132;2023-06-14T13:47:48;3.50;;;3.40;;
4106;SDS011;21906;50.812;7.132;2023-06-14T13:50:13;3.50;;;3.30;;
4106;SDS011;21906;50.812;7.132;2023-06-14T13:52:41;3.85;;;3.65;;
4106;SDS011;21906;50.812;7.132;2023-06-14T13:55:07;3.50;;;3.30;;
4106;SDS011;21906;50.812;7.132;2023-06-14T13:57:33;3.60;;;3.30;;
4106;SDS011;21906;50.812;7.132;2023-06-14T13:59:59;3.50;;;3.30;;
4106;SDS011;21906;50.812;7.132;2023-06-14T14:02:28;6.33;;;3.47;;
4106;SDS011;21906;50.812;7.132;2023-06-14T14:04:54;3.70;;;3.40;;
4106;SDS011;21906;50.812;7.132;2023-06-14T14:07:21;3.40;;;3.10;;
4106;SDS011;21906;50.812;7.132;2023-06-14T14:09:47;3.30;;;3.10;;
4106;SDS011;21906;50.812;7.132;2023-06-14T14:12:13;3.97;;;3.67;;
4106;SDS011;21906;50.812;7.132;2023-06-14T14:14:42;3.60;;;3.40;;
4106;SDS011;21906;50.812;7.132;2023-06-14T14:17:07;3.07;;;2.87;;
4106;SDS011;21906;50.812;7.132;2023-06-14T14:19:33;4.00;;;3.80;;
4106;SDS011;21906;50.812;7.132;2023-06-14T14:21:59;3.50;;;3.40;;
4106;SDS011;21906;50.812;7.132;2023-06-14T14:24:26;4.83;;;3.57;;
4106;SDS011;21906;50.812;7.132;2023-06-14T14:26:52;4.07;;;3.87;;
4106;SDS011;21906;50.812;7.132;2023-06-14T14:29:19;3.77;;;3.50;;
4106;SDS011;21906;50.812;7.132;2023-06-14T14:31:45;3.80;;;3.50;;
4106;SDS011;21906;50.812;7.132;2023-06-14T14:34:11;3.50;;;3.30;;
4106;SDS011;21906;50.812;7.132;2023-06-14T14:36:37;3.60;;;3.40;;
4106;SDS011;21906;50.812;7.132;2023-06-14T14:39:06;3.50;;;3.30;;
4106;SDS011;21906;50.812;7.132;2023-06-14T14:41:32;3.80;;;3.50;;
4106;SDS011;21906;50.812;7.132;2023-06-14T14:43:58;3.80;;;3.60;;
4106;SDS011;21906;50.812;7.132;2023-06-14T14:46:25;3.20;;;3.10;;
4106;SDS011;21906;50.812;7.132;2023-06-14T14:48:52;3.77;;;3.57;;
4106;SDS011;21906;50.812;7.132;2023-06-14T14:51:18;3.60;;;3.40;;
4106;SDS011;21906;50.812;7.132;2023-06-14T14:53:44;3.60;;;3.40;;
4106;SDS011;21906;50.812;7.132;2023-06-14T14:56:10;3.70;;;3.50;;
4106;SDS011;21906;50.812;7.132;2023-06-14T14:58:37;3.27;;;3.17;;
4106;SDS011;21906;50.812;7.132;2023-06-14T15:01:03;3.58;;;3.38;;
4106;SDS011;21906;50.812;7.132;2023-06-14T15:03:30;3.77;;;3.57;;
4106;SDS011;21906;50.812;7.132;2023-06-14T15:05:56;3.90;;;3.70;;
4106;SDS011;21906;50.812;7.132;2023-06-14T15:08:22;4.43;;;4.13;;
4106;SDS011;21906;50.812;7.132;2023-06-14T15:10:48;3.43;;;3.33;;
4106;SDS011;21906;50.812;7.132;2023-06-14T15:13:14;6.57;;;3.93;;